sensor_id;sensor_type;location;lat;lon;timestamp;temperature;humidity
37460;DHT22;23318;50.966;5.284;2024-01-25T00:00:41;8.90;99.90
37460;DHT22;23318;50.966;5.284;2024-01-25T00:03:07;8.90;99.90
37460;DHT22;23318;50.966;5.284;2024-01-25T00:05:33;8.90;99.90
37460;DHT22;23318;50.966;5.284;2024-01-25T00:07:58;8.90;99.90
37460;DHT22;23318;50.966;5.284;2024-01-25T00:10:24;9.00;99.90
37460;DHT22;23318;50.966;5.284;2024-01-25T00:12:49;9.10;99.90
37460;DHT22;23318;50.966;5.284;2024-01-25T00:15:15;9.00;99.90
37460;DHT22;23318;50.966;5.284;2024-01-25T00:17:41;9.10;99.90
37460;DHT22;23318;50.966;5.284;2024-01-25T00:20:09;9.10;99.90
37460;DHT22;23318;50.966;5.284;2024-01-25T00:22:35;9.00;99.90
37460;DHT22;23318;50.966;5.284;2024-01-25T00:25:02;9.00;99.90
37460;DHT22;23318;50.966;5.284;2024-01-25T00:27:28;8.90;99.90
37460;DHT22;23318;50.966;5.284;2024-01-25T00:29:53;8.80;99.90
37460;DHT22;23318;50.966;5.284;2024-01-25T00:32:19;8.80;99.90
37460;DHT22;23318;50.966;5.284;2024-01-25T00:34:45;8.70;99.90
37460;DHT22;23318;50.966;5.284;2024-01-25T00:37:11;8.60;99.90
37460;DHT22;23318;50.966;5.284;2024-01-25T00:39:37;8.60;99.90
37460;DHT22;23318;50.966;5.284;2024-01-25T00:42:06;8.50;99.90
37460;DHT22;23318;50.966;5.284;2024-01-25T00:44:32;8.50;99.90
37460;DHT22;23318;50.966;5.284;2024-01-25T00:46:58;8.40;99.90
37460;DHT22;23318;50.966;5.284;2024-01-25T00:49:25;8.60;99.90
37460;DHT22;23318;50.966;5.284;2024-01-25T00:51:55;8.80;99.90
37460;DHT22;23318;50.966;5.284;2024-01-25T00:54:23;8.70;99.90
37460;DHT22;23318;50.966;5.284;2024-01-25T00:56:49;8.70;99.90
37460;DHT22;23318;50.966;5.284;2024-01-25T00:59:18;8.60;99.90
37460;DHT22;23318;50.966;5.284;2024-01-25T01:01:46;8.60;99.90
37460;DHT22;23318;50.966;5.284;2024-01-25T01:04:14;8.60;99.90
37460;DHT22;23318;50.966;5.284;2024-01-25T01:06:40;8.50;99.90
37460;DHT22;23318;50.966;5.284;2024-01-25T01:09:05;8.50;99.90
37460;DHT22;23318;50.966;5.284;2024-01-25T01:11:31;8.60;99.90
37460;DHT22;23318;50.966;5.284;2024-01-25T01:13:57;8.60;99.90
37460;DHT22;23318;50.966;5.284;2024-01-25T01:16:23;8.70;99.90
37460;DHT22;23318;50.966;5.284;2024-01-25T01:18:48;8.60;99.90
37460;DHT22;23318;50.966;5.284;2024-01-25T01:21:14;8.40;99.90
37460;DHT22;23318;50.966;5.284;2024-01-25T01:23:40;8.30;99.90
37460;DHT22;23318;50.966;5.284;2024-01-25T01:26:05;8.30;99.90
37460;DHT22;23318;50.966;5.284;2024-01-25T01:28:31;8.20;99.90
37460;DHT22;23318;50.966;5.284;2024-01-25T01:30:57;8.10;99.90
37460;DHT22;23318;50.966;5.284;2024-01-25T01:33:22;8.00;99.90
37460;DHT22;23318;50.966;5.284;2024-01-25T01:35:48;8.00;99.90
37460;DHT22;23318;50.966;5.284;2024-01-25T01:38:14;8.00;99.90
37460;DHT22;23318;50.966;5.284;2024-01-25T01:40:39;7.90;99.90
37460;DHT22;23318;50.966;5.284;2024-01-25T01:43:05;7.80;99.90
37460;DHT22;23318;50.966;5.284;2024-01-25T01:45:31;7.90;99.90
37460;DHT22;23318;50.966;5.284;2024-01-25T01:47:57;7.80;99.90
37460;DHT22;23318;50.966;5.284;2024-01-25T01:50:24;7.90;99.90
37460;DHT22;23318;50.966;5.284;2024-01-25T01:52:50;7.90;99.90
37460;DHT22;23318;50.966;5.284;2024-01-25T01:55:17;7.80;99.90
37460;DHT22;23318;50.966;5.284;2024-01-25T01:57:44;7.70;99.90
37460;DHT22;23318;50.966;5.284;2024-01-25T02:00:10;7.70;99.90
37460;DHT22;23318;50.966;5.284;2024-01-25T02:02:36;7.60;99.90
37460;DHT22;23318;50.966;5.284;2024-01-25T02:05:02;7.60;99.90
37460;DHT22;23318;50.966;5.284;2024-01-25T02:07:28;7.60;99.90
37460;DHT22;23318;50.966;5.284;2024-01-25T02:09:55;7.50;99.90
37460;DHT22;23318;50.966;5.284;2024-01-25T02:12:21;7.50;99.90
37460;DHT22;23318;50.966;5.284;2024-01-25T02:14:46;7.50;99.90
37460;DHT22;23318;50.966;5.284;2024-01-25T02:17:12;7.40;99.90
37460;DHT22;23318;50.966;5.284;2024-01-25T02:19:38;7.30;99.90
37460;DHT22;23318;50.966;5.284;2024-01-25T02:22:04;7.50;99.90
37460;DHT22;23318;50.966;5.284;2024-01-25T02:24:30;7.30;99.90
37460;DHT22;23318;50.966;5.284;2024-01-25T02:26:56;7.30;99.90
37460;DHT22;23318;50.966;5.284;2024-01-25T02:29:22;7.30;99.90
37460;DHT22;23318;50.966;5.284;2024-01-25T02:31:47;7.30;99.90
37460;DHT22;23318;50.966;5.284;2024-01-25T02:34:13;7.20;99.90
37460;DHT22;23318;50.966;5.284;2024-01-25T02:36:39;7.20;99.90
37460;DHT22;23318;50.966;5.284;2024-01-25T02:39:05;7.20;99.90
37460;DHT22;23318;50.966;5.284;2024-01-25T02:41:34;7.10;99.90
37460;DHT22;23318;50.966;5.284;2024-01-25T02:44:00;7.10;99.90
37460;DHT22;23318;50.966;5.284;2024-01-25T02:46:25;7.10;99.90
37460;DHT22;23318;50.966;5.284;2024-01-25T02:48:51;7.10;99.90
37460;DHT22;23318;50.966;5.284;2024-01-25T02:51:17;7.10;99.90
37460;DHT22;23318;50.966;5.284;2024-01-25T02:53:42;7.10;99.90
37460;DHT22;23318;50.966;5.284;2024-01-25T02:56:08;7.00;99.90
37460;DHT22;23318;50.966;5.284;2024-01-25T02:58:34;7.00;99.90
37460;DHT22;23318;50.966;5.284;2024-01-25T03:00:59;7.10;99.90
37460;DHT22;23318;50.966;5.284;2024-01-25T03:03:25;7.10;99.90
37460;DHT22;23318;50.966;5.284;2024-01-25T03:05:54;7.20;99.90
37460;DHT22;23318;50.966;5.284;2024-01-25T03:08:19;7.20;99.90
37460;DHT22;23318;50.966;5.284;2024-01-25T03:10:46;7.40;99.90
37460;DHT22;23318;50.966;5.284;2024-01-25T03:13:15;7.40;99.90
37460;DHT22;23318;50.966;5.284;2024-01-25T03:15:42;7.40;99.90
37460;DHT22;23318;50.966;5.284;2024-01-25T03:18:08;7.20;99.90
37460;DHT22;23318;50.966;5.284;2024-01-25T03:20:33;6.90;99.90
37460;DHT22;23318;50.966;5.284;2024-01-25T03:22:59;6.70;99.90
37460;DHT22;23318;50.966;5.284;2024-01-25T03:25:25;6.50;99.90
37460;DHT22;23318;50.966;5.284;2024-01-25T03:27:50;6.30;99.90
37460;DHT22;23318;50.966;5.284;2024-01-25T03:30:16;6.40;99.90
37460;DHT22;23318;50.966;5.284;2024-01-25T03:32:42;6.80;99.90
37460;DHT22;23318;50.966;5.284;2024-01-25T03:35:07;6.90;99.90
37460;DHT22;23318;50.966;5.284;2024-01-25T03:37:33;7.00;99.90
37460;DHT22;23318;50.966;5.284;2024-01-25T03:39:59;6.40;99.90
37460;DHT22;23318;50.966;5.284;2024-01-25T03:42:24;6.10;99.90
37460;DHT22;23318;50.966;5.284;2024-01-25T03:44:50;6.20;99.90
37460;DHT22;23318;50.966;5.284;2024-01-25T03:47:16;6.40;99.90
37460;DHT22;23318;50.966;5.284;2024-01-25T03:49:41;6.60;99.90
37460;DHT22;23318;50.966;5.284;2024-01-25T03:52:07;6.70;99.90
37460;DHT22;23318;50.966;5.284;2024-01-25T03:54:32;6.70;99.90
37460;DHT22;23318;50.966;5.284;2024-01-25T03:56:58;6.70;99.90
37460;DHT22;23318;50.966;5.284;2024-01-25T03:59:24;6.70;99.90
37460;DHT22;23318;50.966;5.284;2024-01-25T04:01:49;6.70;99.90
37460;DHT22;23318;50.966;5.284;2024-01-25T04:04:15;6.60;99.90
37460;DHT22;23318;50.966;5.284;2024-01-25T04:06:42;6.20;99.90
37460;DHT22;23318;50.966;5.284;2024-01-25T04:09:08;6.00;99.90
37460;DHT22;23318;50.966;5.284;2024-01-25T04:11:35;5.70;99.90
37460;DHT22;23318;50.966;5.284;2024-01-25T04:14:01;6.10;99.90
37460;DHT22;23318;50.966;5.284;2024-01-25T04:16:27;6.00;99.90
37460;DHT22;23318;50.966;5.284;2024-01-25T04:18:53;5.70;99.90
37460;DHT22;23318;50.966;5.284;2024-01-25T04:21:18;5.40;99.90
37460;DHT22;23318;50.966;5.284;2024-01-25T04:23:44;5.40;99.90
37460;DHT22;23318;50.966;5.284;2024-01-25T04:26:10;5.70;99.90
37460;DHT22;23318;50.966;5.284;2024-01-25T04:28:36;5.90;99.90
37460;DHT22;23318;50.966;5.284;2024-01-25T04:31:04;6.00;99.90
37460;DHT22;23318;50.966;5.284;2024-01-25T04:33:30;6.00;99.90
37460;DHT22;23318;50.966;5.284;2024-01-25T04:35:55;5.90;99.90
37460;DHT22;23318;50.966;5.284;2024-01-25T04:38:21;6.00;99.90
37460;DHT22;23318;50.966;5.284;2024-01-25T04:40:47;5.90;99.90
37460;DHT22;23318;50.966;5.284;2024-01-25T04:43:13;5.80;99.90
37460;DHT22;23318;50.966;5.284;2024-01-25T04:45:39;5.80;99.90
37460;DHT22;23318;50.966;5.284;2024-01-25T04:48:06;5.90;99.90
37460;DHT22;23318;50.966;5.284;2024-01-25T04:50:31;5.90;99.90
37460;DHT22;23318;50.966;5.284;2024-01-25T04:52:57;5.60;99.90
37460;DHT22;23318;50.966;5.284;2024-01-25T04:55:23;5.20;99.90
37460;DHT22;23318;50.966;5.284;2024-01-25T04:57:48;5.10;99.90
37460;DHT22;23318;50.966;5.284;2024-01-25T05:00:19;4.80;99.90
37460;DHT22;23318;50.966;5.284;2024-01-25T05:02:45;4.80;99.90
37460;DHT22;23318;50.966;5.284;2024-01-25T05:05:11;5.10;99.90
37460;DHT22;23318;50.966;5.284;2024-01-25T05:07:36;5.40;99.90
37460;DHT22;23318;50.966;5.284;2024-01-25T05:10:02;5.50;99.90
37460;DHT22;23318;50.966;5.284;2024-01-25T05:12:28;5.60;99.90
37460;DHT22;23318;50.966;5.284;2024-01-25T05:14:53;5.60;99.90
37460;DHT22;23318;50.966;5.284;2024-01-25T05:17:19;5.60;99.90
37460;DHT22;23318;50.966;5.284;2024-01-25T05:19:45;5.50;99.90
37460;DHT22;23318;50.966;5.284;2024-01-25T05:22:10;5.50;99.90
37460;DHT22;23318;50.966;5.284;2024-01-25T05:24:36;5.50;99.90
37460;DHT22;23318;50.966;5.284;2024-01-25T05:27:02;5.50;99.90
37460;DHT22;23318;50.966;5.284;2024-01-25T05:29:28;5.30;99.90
37460;DHT22;23318;50.966;5.284;2024-01-25T05:31:54;5.30;99.90
37460;DHT22;23318;50.966;5.284;2024-01-25T05:34:19;5.30;99.90
37460;DHT22;23318;50.966;5.284;2024-01-25T05:36:45;5.40;99.90
37460;DHT22;23318;50.966;5.284;2024-01-25T05:39:11;5.40;99.90
37460;DHT22;23318;50.966;5.284;2024-01-25T05:41:38;5.20;99.90
37460;DHT22;23318;50.966;5.284;2024-01-25T05:44:04;4.80;99.90
37460;DHT22;23318;50.966;5.284;2024-01-25T05:46:30;4.60;99.90
37460;DHT22;23318;50.966;5.284;2024-01-25T05:48:56;4.60;99.90
37460;DHT22;23318;50.966;5.284;2024-01-25T05:51:21;4.90;99.90
37460;DHT22;23318;50.966;5.284;2024-01-25T05:53:47;4.90;99.90
37460;DHT22;23318;50.966;5.284;2024-01-25T05:56:13;4.70;99.90
37460;DHT22;23318;50.966;5.284;2024-01-25T05:58:38;4.60;99.90
37460;DHT22;23318;50.966;5.284;2024-01-25T06:01:04;4.60;99.90
37460;DHT22;23318;50.966;5.284;2024-01-25T06:03:30;4.90;99.90
37460;DHT22;23318;50.966;5.284;2024-01-25T06:05:55;5.20;99.90
37460;DHT22;23318;50.966;5.284;2024-01-25T06:08:21;5.10;99.90
37460;DHT22;23318;50.966;5.284;2024-01-25T06:10:47;5.10;99.90
37460;DHT22;23318;50.966;5.284;2024-01-25T06:13:13;4.80;99.90
37460;DHT22;23318;50.966;5.284;2024-01-25T06:15:39;4.50;99.90
37460;DHT22;23318;50.966;5.284;2024-01-25T06:18:05;4.60;99.90
37460;DHT22;23318;50.966;5.284;2024-01-25T06:20:30;4.70;99.90
37460;DHT22;23318;50.966;5.284;2024-01-25T06:22:56;4.90;99.90
37460;DHT22;23318;50.966;5.284;2024-01-25T06:25:22;5.00;99.90
37460;DHT22;23318;50.966;5.284;2024-01-25T06:27:48;5.00;99.90
37460;DHT22;23318;50.966;5.284;2024-01-25T06:30:14;4.60;99.90
37460;DHT22;23318;50.966;5.284;2024-01-25T06:32:40;4.40;99.90
37460;DHT22;23318;50.966;5.284;2024-01-25T06:35:06;4.30;99.90
37460;DHT22;23318;50.966;5.284;2024-01-25T06:37:32;4.60;99.90
37460;DHT22;23318;50.966;5.284;2024-01-25T06:39:57;4.90;99.90
37460;DHT22;23318;50.966;5.284;2024-01-25T06:42:24;4.90;99.90
37460;DHT22;23318;50.966;5.284;2024-01-25T06:44:49;5.00;99.90
37460;DHT22;23318;50.966;5.284;2024-01-25T06:47:15;4.70;99.90
37460;DHT22;23318;50.966;5.284;2024-01-25T06:49:41;4.40;99.90
37460;DHT22;23318;50.966;5.284;2024-01-25T06:52:06;4.30;99.90
37460;DHT22;23318;50.966;5.284;2024-01-25T06:54:32;4.30;99.90
37460;DHT22;23318;50.966;5.284;2024-01-25T06:56:58;4.50;99.90
37460;DHT22;23318;50.966;5.284;2024-01-25T06:59:23;4.70;99.90
37460;DHT22;23318;50.966;5.284;2024-01-25T07:01:49;4.60;99.90
37460;DHT22;23318;50.966;5.284;2024-01-25T07:04:15;4.60;99.90
37460;DHT22;23318;50.966;5.284;2024-01-25T07:06:40;4.40;99.90
37460;DHT22;23318;50.966;5.284;2024-01-25T07:09:06;4.30;99.90
37460;DHT22;23318;50.966;5.284;2024-01-25T07:11:32;4.50;99.90
37460;DHT22;23318;50.966;5.284;2024-01-25T07:13:58;4.70;99.90
37460;DHT22;23318;50.966;5.284;2024-01-25T07:16:24;4.90;99.90
37460;DHT22;23318;50.966;5.284;2024-01-25T07:18:49;4.80;99.90
37460;DHT22;23318;50.966;5.284;2024-01-25T07:21:15;4.80;99.90
37460;DHT22;23318;50.966;5.284;2024-01-25T07:23:41;4.80;99.90
37460;DHT22;23318;50.966;5.284;2024-01-25T07:26:07;5.10;99.90
37460;DHT22;23318;50.966;5.284;2024-01-25T07:28:32;5.30;99.90
37460;DHT22;23318;50.966;5.284;2024-01-25T07:30:58;5.50;99.90
37460;DHT22;23318;50.966;5.284;2024-01-25T07:33:23;5.60;99.90
37460;DHT22;23318;50.966;5.284;2024-01-25T07:35:50;5.30;99.90
37460;DHT22;23318;50.966;5.284;2024-01-25T07:38:16;4.80;99.90
37460;DHT22;23318;50.966;5.284;2024-01-25T07:40:41;4.60;99.90
37460;DHT22;23318;50.966;5.284;2024-01-25T07:43:07;4.60;99.90
37460;DHT22;23318;50.966;5.284;2024-01-25T07:45:33;4.90;99.90
37460;DHT22;23318;50.966;5.284;2024-01-25T07:47:59;4.80;99.90
37460;DHT22;23318;50.966;5.284;2024-01-25T07:50:25;4.70;99.90
37460;DHT22;23318;50.966;5.284;2024-01-25T07:52:50;4.80;99.90
37460;DHT22;23318;50.966;5.284;2024-01-25T07:55:16;4.80;99.90
37460;DHT22;23318;50.966;5.284;2024-01-25T07:57:42;5.10;99.90
37460;DHT22;23318;50.966;5.284;2024-01-25T08:00:09;5.40;99.90
37460;DHT22;23318;50.966;5.284;2024-01-25T08:02:35;5.60;99.90
37460;DHT22;23318;50.966;5.284;2024-01-25T08:05:01;5.70;99.90
37460;DHT22;23318;50.966;5.284;2024-01-25T08:07:28;5.80;99.90
37460;DHT22;23318;50.966;5.284;2024-01-25T08:09:54;5.70;99.90
37460;DHT22;23318;50.966;5.284;2024-01-25T08:12:24;5.30;99.90
37460;DHT22;23318;50.966;5.284;2024-01-25T08:14:50;5.00;99.90
37460;DHT22;23318;50.966;5.284;2024-01-25T08:17:15;5.10;99.90
37460;DHT22;23318;50.966;5.284;2024-01-25T08:19:41;5.60;99.90
37460;DHT22;23318;50.966;5.284;2024-01-25T08:22:07;6.00;99.90
37460;DHT22;23318;50.966;5.284;2024-01-25T08:24:32;6.30;99.90
37460;DHT22;23318;50.966;5.284;2024-01-25T08:26:58;6.50;99.90
37460;DHT22;23318;50.966;5.284;2024-01-25T08:29:24;6.70;99.90
37460;DHT22;23318;50.966;5.284;2024-01-25T08:31:49;6.90;99.90
37460;DHT22;23318;50.966;5.284;2024-01-25T08:34:15;7.00;99.90
37460;DHT22;23318;50.966;5.284;2024-01-25T08:36:41;7.10;99.90
37460;DHT22;23318;50.966;5.284;2024-01-25T08:39:06;7.30;99.90
37460;DHT22;23318;50.966;5.284;2024-01-25T08:41:34;7.30;99.90
37460;DHT22;23318;50.966;5.284;2024-01-25T08:44:00;7.40;99.90
37460;DHT22;23318;50.966;5.284;2024-01-25T08:46:26;7.50;99.90
37460;DHT22;23318;50.966;5.284;2024-01-25T08:48:52;7.70;99.90
37460;DHT22;23318;50.966;5.284;2024-01-25T08:51:17;7.80;99.90
37460;DHT22;23318;50.966;5.284;2024-01-25T08:53:43;7.80;99.90
37460;DHT22;23318;50.966;5.284;2024-01-25T08:56:09;7.80;99.90
37460;DHT22;23318;50.966;5.284;2024-01-25T08:58:35;7.60;99.90
37460;DHT22;23318;50.966;5.284;2024-01-25T09:01:00;7.40;99.90
37460;DHT22;23318;50.966;5.284;2024-01-25T09:03:26;7.80;99.90
37460;DHT22;23318;50.966;5.284;2024-01-25T09:05:52;7.40;99.90
37460;DHT22;23318;50.966;5.284;2024-01-25T09:08:18;7.80;99.90
37460;DHT22;23318;50.966;5.284;2024-01-25T09:10:43;7.50;99.90
37460;DHT22;23318;50.966;5.284;2024-01-25T09:13:10;7.30;99.90
37460;DHT22;23318;50.966;5.284;2024-01-25T09:15:36;7.10;99.90
37460;DHT22;23318;50.966;5.284;2024-01-25T09:18:01;7.00;99.90
37460;DHT22;23318;50.966;5.284;2024-01-25T09:20:27;7.00;99.90
37460;DHT22;23318;50.966;5.284;2024-01-25T09:22:53;6.70;99.90
37460;DHT22;23318;50.966;5.284;2024-01-25T09:25:22;6.40;99.90
37460;DHT22;23318;50.966;5.284;2024-01-25T09:27:47;6.30;99.90
37460;DHT22;23318;50.966;5.284;2024-01-25T09:30:14;6.70;99.90
37460;DHT22;23318;50.966;5.284;2024-01-25T09:32:39;6.90;99.90
37460;DHT22;23318;50.966;5.284;2024-01-25T09:35:05;7.00;99.90
37460;DHT22;23318;50.966;5.284;2024-01-25T09:37:31;7.20;99.90
37460;DHT22;23318;50.966;5.284;2024-01-25T09:39:57;7.00;99.90
37460;DHT22;23318;50.966;5.284;2024-01-25T09:42:24;7.10;99.90
37460;DHT22;23318;50.966;5.284;2024-01-25T09:44:52;7.30;99.90
37460;DHT22;23318;50.966;5.284;2024-01-25T09:47:19;6.90;99.90
37460;DHT22;23318;50.966;5.284;2024-01-25T09:49:46;7.00;99.90
37460;DHT22;23318;50.966;5.284;2024-01-25T09:52:14;6.90;99.90
37460;DHT22;23318;50.966;5.284;2024-01-25T09:54:40;7.20;99.90
37460;DHT22;23318;50.966;5.284;2024-01-25T09:57:13;7.30;99.90
37460;DHT22;23318;50.966;5.284;2024-01-25T09:59:41;7.10;99.90
37460;DHT22;23318;50.966;5.284;2024-01-25T10:02:07;7.30;99.90
37460;DHT22;23318;50.966;5.284;2024-01-25T10:04:34;7.40;99.90
37460;DHT22;23318;50.966;5.284;2024-01-25T10:06:59;7.10;99.90
37460;DHT22;23318;50.966;5.284;2024-01-25T10:09:25;7.10;99.90
37460;DHT22;23318;50.966;5.284;2024-01-25T10:11:51;6.90;99.90
37460;DHT22;23318;50.966;5.284;2024-01-25T10:14:16;7.00;99.90
37460;DHT22;23318;50.966;5.284;2024-01-25T10:16:45;7.00;99.90
37460;DHT22;23318;50.966;5.284;2024-01-25T10:19:12;7.00;99.90
37460;DHT22;23318;50.966;5.284;2024-01-25T10:21:38;6.90;99.90
37460;DHT22;23318;50.966;5.284;2024-01-25T10:24:06;6.80;99.90
37460;DHT22;23318;50.966;5.284;2024-01-25T10:26:34;7.00;99.90
37460;DHT22;23318;50.966;5.284;2024-01-25T10:29:01;7.30;99.90
37460;DHT22;23318;50.966;5.284;2024-01-25T10:31:29;7.60;99.90
37460;DHT22;23318;50.966;5.284;2024-01-25T10:33:54;7.40;99.90
37460;DHT22;23318;50.966;5.284;2024-01-25T10:36:21;7.90;99.90
37460;DHT22;23318;50.966;5.284;2024-01-25T10:38:49;7.80;99.90
37460;DHT22;23318;50.966;5.284;2024-01-25T10:41:15;8.20;99.90
37460;DHT22;23318;50.966;5.284;2024-01-25T10:43:42;7.80;99.90
37460;DHT22;23318;50.966;5.284;2024-01-25T10:46:08;7.90;99.90
37460;DHT22;23318;50.966;5.284;2024-01-25T10:48:34;7.80;99.90
37460;DHT22;23318;50.966;5.284;2024-01-25T10:51:00;7.90;99.90
37460;DHT22;23318;50.966;5.284;2024-01-25T10:53:32;7.80;99.90
37460;DHT22;23318;50.966;5.284;2024-01-25T10:55:59;7.70;99.90
37460;DHT22;23318;50.966;5.284;2024-01-25T10:58:32;7.90;99.90
37460;DHT22;23318;50.966;5.284;2024-01-25T11:01:01;7.70;99.90
37460;DHT22;23318;50.966;5.284;2024-01-25T11:03:34;7.90;99.90
37460;DHT22;23318;50.966;5.284;2024-01-25T11:06:10;7.70;99.90
37460;DHT22;23318;50.966;5.284;2024-01-25T11:08:37;7.50;99.90
37460;DHT22;23318;50.966;5.284;2024-01-25T11:11:08;7.60;99.90
37460;DHT22;23318;50.966;5.284;2024-01-25T11:13:34;7.50;99.90
37460;DHT22;23318;50.966;5.284;2024-01-25T11:16:14;7.70;99.90
37460;DHT22;23318;50.966;5.284;2024-01-25T11:18:55;7.50;99.90
37460;DHT22;23318;50.966;5.284;2024-01-25T11:21:27;7.90;99.90
37460;DHT22;23318;50.966;5.284;2024-01-25T11:24:01;8.50;99.90
37460;DHT22;23318;50.966;5.284;2024-01-25T11:26:27;8.50;99.90
37460;DHT22;23318;50.966;5.284;2024-01-25T11:28:52;8.50;99.90
37460;DHT22;23318;50.966;5.284;2024-01-25T11:31:18;9.10;99.90
37460;DHT22;23318;50.966;5.284;2024-01-25T11:33:44;9.20;99.90
37460;DHT22;23318;50.966;5.284;2024-01-25T11:36:10;9.40;99.90
37460;DHT22;23318;50.966;5.284;2024-01-25T11:38:39;9.30;99.90
37460;DHT22;23318;50.966;5.284;2024-01-25T11:41:04;9.40;99.90
37460;DHT22;23318;50.966;5.284;2024-01-25T11:43:30;9.00;99.90
37460;DHT22;23318;50.966;5.284;2024-01-25T11:45:56;9.20;99.90
37460;DHT22;23318;50.966;5.284;2024-01-25T11:48:21;9.40;99.90
37460;DHT22;23318;50.966;5.284;2024-01-25T11:50:47;9.40;99.90
37460;DHT22;23318;50.966;5.284;2024-01-25T11:53:13;9.20;99.90
37460;DHT22;23318;50.966;5.284;2024-01-25T11:55:39;9.00;99.90
37460;DHT22;23318;50.966;5.284;2024-01-25T11:58:05;9.20;99.90
37460;DHT22;23318;50.966;5.284;2024-01-25T12:00:31;9.20;99.90
37460;DHT22;23318;50.966;5.284;2024-01-25T12:02:56;9.30;99.90
37460;DHT22;23318;50.966;5.284;2024-01-25T12:05:22;9.30;99.90
37460;DHT22;23318;50.966;5.284;2024-01-25T12:07:48;9.70;99.90
37460;DHT22;23318;50.966;5.284;2024-01-25T12:10:17;9.80;99.90
37460;DHT22;23318;50.966;5.284;2024-01-25T12:12:45;9.90;99.90
37460;DHT22;23318;50.966;5.284;2024-01-25T12:15:11;9.90;99.90
37460;DHT22;23318;50.966;5.284;2024-01-25T12:17:37;10.10;99.90
37460;DHT22;23318;50.966;5.284;2024-01-25T12:20:05;10.50;99.90
37460;DHT22;23318;50.966;5.284;2024-01-25T12:22:37;10.60;99.90
37460;DHT22;23318;50.966;5.284;2024-01-25T12:25:06;10.70;99.90
37460;DHT22;23318;50.966;5.284;2024-01-25T12:27:32;10.90;99.90
37460;DHT22;23318;50.966;5.284;2024-01-25T12:29:58;10.90;99.90
37460;DHT22;23318;50.966;5.284;2024-01-25T12:32:24;11.00;99.90
37460;DHT22;23318;50.966;5.284;2024-01-25T12:34:57;10.70;99.90
37460;DHT22;23318;50.966;5.284;2024-01-25T12:37:24;10.30;99.90
37460;DHT22;23318;50.966;5.284;2024-01-25T12:39:53;10.70;99.90
37460;DHT22;23318;50.966;5.284;2024-01-25T12:42:20;10.80;99.90
37460;DHT22;23318;50.966;5.284;2024-01-25T12:44:46;10.90;99.90
37460;DHT22;23318;50.966;5.284;2024-01-25T12:47:12;11.10;99.90
37460;DHT22;23318;50.966;5.284;2024-01-25T12:49:42;11.40;99.90
37460;DHT22;23318;50.966;5.284;2024-01-25T12:52:12;11.20;99.90
37460;DHT22;23318;50.966;5.284;2024-01-25T12:54:39;10.70;99.90
37460;DHT22;23318;50.966;5.284;2024-01-25T12:57:05;10.30;99.90
37460;DHT22;23318;50.966;5.284;2024-01-25T12:59:32;10.20;99.90
37460;DHT22;23318;50.966;5.284;2024-01-25T13:01:59;10.40;99.90
37460;DHT22;23318;50.966;5.284;2024-01-25T13:04:24;10.60;99.90
37460;DHT22;23318;50.966;5.284;2024-01-25T13:06:52;11.10;99.90
37460;DHT22;23318;50.966;5.284;2024-01-25T13:09:19;11.20;99.90
37460;DHT22;23318;50.966;5.284;2024-01-25T13:11:44;10.90;99.90
37460;DHT22;23318;50.966;5.284;2024-01-25T13:14:11;10.80;99.90
37460;DHT22;23318;50.966;5.284;2024-01-25T13:16:37;10.30;99.90
37460;DHT22;23318;50.966;5.284;2024-01-25T13:19:03;10.00;99.90
37460;DHT22;23318;50.966;5.284;2024-01-25T13:21:28;9.70;99.90
37460;DHT22;23318;50.966;5.284;2024-01-25T13:23:54;9.50;99.90
37460;DHT22;23318;50.966;5.284;2024-01-25T13:26:20;9.30;99.90
37460;DHT22;23318;50.966;5.284;2024-01-25T13:28:45;9.30;99.90
37460;DHT22;23318;50.966;5.284;2024-01-25T13:31:11;9.50;99.90
37460;DHT22;23318;50.966;5.284;2024-01-25T13:33:37;9.60;99.90
37460;DHT22;23318;50.966;5.284;2024-01-25T13:36:02;9.80;99.90
37460;DHT22;23318;50.966;5.284;2024-01-25T13:38:36;10.00;99.90
37460;DHT22;23318;50.966;5.284;2024-01-25T13:41:02;10.10;99.90
37460;DHT22;23318;50.966;5.284;2024-01-25T13:43:28;10.00;99.90
37460;DHT22;23318;50.966;5.284;2024-01-25T13:45:54;10.20;99.90
37460;DHT22;23318;50.966;5.284;2024-01-25T13:48:20;10.40;99.90
37460;DHT22;23318;50.966;5.284;2024-01-25T13:50:46;10.60;99.90
37460;DHT22;23318;50.966;5.284;2024-01-25T13:53:12;10.50;99.90
37460;DHT22;23318;50.966;5.284;2024-01-25T13:55:37;10.60;99.90
37460;DHT22;23318;50.966;5.284;2024-01-25T13:58:03;10.80;99.90
37460;DHT22;23318;50.966;5.284;2024-01-25T14:00:29;11.00;99.90
37460;DHT22;23318;50.966;5.284;2024-01-25T14:02:55;10.90;99.90
37460;DHT22;23318;50.966;5.284;2024-01-25T14:05:20;10.90;99.90
37460;DHT22;23318;50.966;5.284;2024-01-25T14:07:46;11.00;99.90
37460;DHT22;23318;50.966;5.284;2024-01-25T14:10:12;10.90;99.90
37460;DHT22;23318;50.966;5.284;2024-01-25T14:12:38;10.80;99.90
37460;DHT22;23318;50.966;5.284;2024-01-25T14:15:04;10.70;99.90
37460;DHT22;23318;50.966;5.284;2024-01-25T14:17:30;10.70;99.90
37460;DHT22;23318;50.966;5.284;2024-01-25T14:19:55;10.70;99.90
37460;DHT22;23318;50.966;5.284;2024-01-25T14:22:21;10.70;99.90
37460;DHT22;23318;50.966;5.284;2024-01-25T14:24:47;11.00;99.90
37460;DHT22;23318;50.966;5.284;2024-01-25T14:27:13;10.90;99.90
37460;DHT22;23318;50.966;5.284;2024-01-25T14:29:38;10.90;99.90
37460;DHT22;23318;50.966;5.284;2024-01-25T14:32:04;11.00;99.90
37460;DHT22;23318;50.966;5.284;2024-01-25T14:34:30;11.10;99.90
37460;DHT22;23318;50.966;5.284;2024-01-25T14:36:55;11.10;99.90
37460;DHT22;23318;50.966;5.284;2024-01-25T14:39:21;11.20;99.90
37460;DHT22;23318;50.966;5.284;2024-01-25T14:41:47;10.90;99.90
37460;DHT22;23318;50.966;5.284;2024-01-25T14:44:13;11.00;99.90
37460;DHT22;23318;50.966;5.284;2024-01-25T14:46:39;10.80;99.90
37460;DHT22;23318;50.966;5.284;2024-01-25T14:49:05;10.80;99.90
37460;DHT22;23318;50.966;5.284;2024-01-25T14:51:31;11.00;99.90
37460;DHT22;23318;50.966;5.284;2024-01-25T14:53:56;11.20;99.90
37460;DHT22;23318;50.966;5.284;2024-01-25T14:56:22;11.30;99.90
37460;DHT22;23318;50.966;5.284;2024-01-25T14:58:48;11.20;99.90
37460;DHT22;23318;50.966;5.284;2024-01-25T15:01:17;10.90;99.90
37460;DHT22;23318;50.966;5.284;2024-01-25T15:03:47;11.00;99.90
37460;DHT22;23318;50.966;5.284;2024-01-25T15:06:13;10.90;99.90
37460;DHT22;23318;50.966;5.284;2024-01-25T15:08:39;11.00;99.90
37460;DHT22;23318;50.966;5.284;2024-01-25T15:11:06;11.20;99.90
37460;DHT22;23318;50.966;5.284;2024-01-25T15:13:31;11.00;99.90
37460;DHT22;23318;50.966;5.284;2024-01-25T15:15:57;10.90;99.90
37460;DHT22;23318;50.966;5.284;2024-01-25T15:18:23;10.60;99.90
37460;DHT22;23318;50.966;5.284;2024-01-25T15:20:49;10.80;99.90
37460;DHT22;23318;50.966;5.284;2024-01-25T15:23:16;11.00;99.90
37460;DHT22;23318;50.966;5.284;2024-01-25T15:25:42;11.00;99.90
37460;DHT22;23318;50.966;5.284;2024-01-25T15:28:08;11.00;99.90
37460;DHT22;23318;50.966;5.284;2024-01-25T15:30:33;11.10;99.90
37460;DHT22;23318;50.966;5.284;2024-01-25T15:32:59;11.40;99.90
37460;DHT22;23318;50.966;5.284;2024-01-25T15:35:27;11.30;99.90